createdAt,value
2022-07-26T00:00:27.446Z,20.10
2022-07-26T00:02:54.991Z,20.00
2022-07-26T00:05:22.004Z,19.90
2022-07-26T00:07:48.790Z,19.90
2022-07-26T00:10:15.820Z,19.80
2022-07-26T00:12:42.692Z,19.70
2022-07-26T00:15:14.326Z,19.60
2022-07-26T00:17:41.111Z,19.60
2022-07-26T00:20:08.322Z,19.60
2022-07-26T00:22:35.285Z,19.50
2022-07-26T00:25:04.050Z,19.50
2022-07-26T00:27:31.117Z,19.50
2022-07-26T00:29:57.959Z,19.40
2022-07-26T00:32:26.262Z,19.30
2022-07-26T00:34:53.182Z,19.30
2022-07-26T00:37:21.007Z,19.20
2022-07-26T00:39:48.805Z,19.20
2022-07-26T00:42:16.002Z,19.10
2022-07-26T00:44:45.306Z,19.20
2022-07-26T00:47:15.776Z,19.20
2022-07-26T00:49:43.636Z,19.40
2022-07-26T00:52:11.642Z,19.50
2022-07-26T00:54:40.237Z,19.60
2022-07-26T00:57:07.584Z,19.70
2022-07-26T00:59:36.770Z,19.80
2022-07-26T01:02:05.583Z,19.80
2022-07-26T01:04:32.892Z,19.90
2022-07-26T01:06:59.875Z,19.90
2022-07-26T01:09:27.165Z,19.90
2022-07-26T01:11:54.001Z,19.90
2022-07-26T01:14:21.775Z,19.90
2022-07-26T01:16:51.148Z,19.90
2022-07-26T01:19:19.151Z,19.80
2022-07-26T01:21:48.228Z,19.60
2022-07-26T01:24:15.454Z,19.50
2022-07-26T01:26:42.241Z,19.30
2022-07-26T01:29:09.202Z,19.10
2022-07-26T01:31:36.335Z,18.90
2022-07-26T01:34:06.059Z,18.70
2022-07-26T01:36:33.527Z,18.50
2022-07-26T01:39:00.277Z,18.40
2022-07-26T01:41:37.372Z,18.30
2022-07-26T01:44:07.569Z,18.20
2022-07-26T01:46:36.053Z,18.30
2022-07-26T01:49:03.304Z,18.30
2022-07-26T01:51:30.507Z,18.30
2022-07-26T01:53:59.643Z,18.30
2022-07-26T01:56:26.546Z,18.30
2022-07-26T01:58:53.426Z,18.40
2022-07-26T02:01:38.862Z,18.40
2022-07-26T02:04:08.546Z,18.40
2022-07-26T02:06:35.823Z,18.50
2022-07-26T02:09:05.205Z,18.50
2022-07-26T02:11:34.341Z,18.50
2022-07-26T02:14:02.361Z,18.50
2022-07-26T02:16:29.216Z,18.50
2022-07-26T02:18:55.962Z,18.50
2022-07-26T02:21:22.637Z,18.50
2022-07-26T02:23:49.415Z,18.50
2022-07-26T02:26:16.203Z,18.40
2022-07-26T02:28:43.160Z,18.40
2022-07-26T02:31:09.900Z,18.40
2022-07-26T02:33:38.523Z,18.40
2022-07-26T02:36:05.543Z,18.30
2022-07-26T02:38:32.305Z,18.30
2022-07-26T02:40:59.012Z,18.20
2022-07-26T02:43:26.872Z,18.00
2022-07-26T02:46:01.454Z,18.00
2022-07-26T02:48:30.304Z,17.80
2022-07-26T02:50:57.262Z,17.70
2022-07-26T02:53:24.057Z,17.60
2022-07-26T02:55:50.747Z,17.50
2022-07-26T02:58:17.616Z,17.40
2022-07-26T03:00:44.390Z,17.30
2022-07-26T03:03:14.140Z,17.30
2022-07-26T03:05:43.113Z,17.30
2022-07-26T03:08:09.795Z,17.30
2022-07-26T03:10:39.541Z,17.20
2022-07-26T03:13:06.321Z,17.20
2022-07-26T03:15:33.155Z,17.10
2022-07-26T03:18:00.133Z,17.00
2022-07-26T03:20:26.839Z,17.00
2022-07-26T03:22:53.549Z,16.80
2022-07-26T03:25:20.532Z,16.70
2022-07-26T03:27:50.337Z,16.60
2022-07-26T03:30:17.048Z,16.50
2022-07-26T03:32:51.865Z,16.40
2022-07-26T03:35:18.545Z,16.30
2022-07-26T03:37:46.170Z,16.30
2022-07-26T03:40:22.630Z,16.20
2022-07-26T03:42:49.441Z,16.20
2022-07-26T03:45:16.347Z,16.20
2022-07-26T03:47:43.703Z,16.20
2022-07-26T03:50:11.250Z,16.20
2022-07-26T03:52:40.660Z,16.10
2022-07-26T03:55:26.331Z,16.10
2022-07-26T03:57:54.863Z,16.00
2022-07-26T04:00:21.569Z,16.00
2022-07-26T04:02:48.291Z,16.00
2022-07-26T04:05:15.064Z,16.00
2022-07-26T04:07:52.408Z,15.90
2022-07-26T04:10:20.905Z,15.90
2022-07-26T04:12:47.898Z,15.90
2022-07-26T04:15:16.922Z,15.80
2022-07-26T04:17:48.364Z,15.90
2022-07-26T04:20:15.542Z,15.90
2022-07-26T04:22:42.405Z,16.00
2022-07-26T04:25:10.112Z,16.00
2022-07-26T04:27:38.571Z,16.10
2022-07-26T04:30:12.358Z,16.20
2022-07-26T04:32:41.673Z,16.40
2022-07-26T04:35:08.980Z,16.50
2022-07-26T04:37:48.256Z,16.60
2022-07-26T04:40:21.129Z,16.70
2022-07-26T04:42:49.335Z,16.80
2022-07-26T04:45:16.838Z,16.90
2022-07-26T04:47:52.346Z,16.90
2022-07-26T04:50:20.868Z,17.20
2022-07-26T04:52:49.062Z,17.80
2022-07-26T04:55:16.970Z,18.50
2022-07-26T04:57:44.574Z,19.20
2022-07-26T05:00:21.727Z,19.80
2022-07-26T05:02:49.685Z,20.20
2022-07-26T05:05:16.699Z,20.80
2022-07-26T05:07:54.914Z,21.40
2022-07-26T05:10:31.226Z,22.00
2022-07-26T05:12:58.426Z,22.70
2022-07-26T05:15:25.349Z,23.10
2022-07-26T05:18:07.037Z,23.50
2022-07-26T05:20:35.360Z,23.50
2022-07-26T05:23:02.162Z,23.70
2022-07-26T05:25:29.388Z,23.70
2022-07-26T05:27:56.282Z,23.80
2022-07-26T05:30:23.099Z,23.90
2022-07-26T05:32:49.892Z,23.80
2022-07-26T05:35:19.111Z,24.10
2022-07-26T05:37:45.885Z,24.60
2022-07-26T05:40:15.546Z,24.90
2022-07-26T05:42:42.654Z,25.20
2022-07-26T05:45:10.864Z,25.50
2022-07-26T05:47:37.957Z,25.30
2022-07-26T05:50:05.896Z,25.20
2022-07-26T05:52:33.102Z,25.20
2022-07-26T05:54:59.997Z,25.30
2022-07-26T05:57:26.795Z,25.60
2022-07-26T05:59:53.585Z,25.90
2022-07-26T06:02:20.661Z,26.20
2022-07-26T06:04:47.817Z,26.20
2022-07-26T06:07:15.446Z,26.30
2022-07-26T06:09:45.264Z,26.20
2022-07-26T06:12:12.055Z,26.20
2022-07-26T06:14:38.858Z,26.10
2022-07-26T06:17:05.675Z,26.30
2022-07-26T06:19:32.884Z,26.40
2022-07-26T06:22:00.099Z,26.60
2022-07-26T06:24:26.900Z,26.80
2022-07-26T06:26:58.154Z,26.80
2022-07-26T06:29:35.220Z,27.00
2022-07-26T06:32:02.170Z,26.80
2022-07-26T06:34:29.046Z,26.30
2022-07-26T06:36:55.797Z,26.20
2022-07-26T06:39:22.555Z,26.50
2022-07-26T06:41:49.269Z,27.00
2022-07-26T06:44:18.390Z,27.20
2022-07-26T06:46:45.106Z,27.40
2022-07-26T06:49:12.943Z,27.50
2022-07-26T06:51:39.803Z,27.70
2022-07-26T06:54:06.942Z,28.00
2022-07-26T06:56:33.893Z,28.30
2022-07-26T06:59:00.635Z,28.30
2022-07-26T07:01:58.066Z,28.30
2022-07-26T07:04:14.149Z,28.20
2022-07-26T07:06:40.921Z,28.30
2022-07-26T07:09:09.055Z,28.40
2022-07-26T07:11:36.439Z,28.40
2022-07-26T07:14:03.409Z,28.50
2022-07-26T07:16:30.519Z,28.50
2022-07-26T07:18:57.550Z,28.60
2022-07-26T07:21:24.381Z,28.80
2022-07-26T07:23:51.126Z,29.10
2022-07-26T07:26:20.143Z,29.30
2022-07-26T07:28:49.908Z,29.50
2022-07-26T07:31:16.679Z,29.40
2022-07-26T07:33:53.556Z,29.20
2022-07-26T07:36:22.566Z,28.70
2022-07-26T07:38:49.721Z,28.20
2022-07-26T07:41:16.699Z,28.00
2022-07-26T07:43:43.448Z,27.80
2022-07-26T07:46:10.242Z,28.40
2022-07-26T07:48:46.593Z,28.40
2022-07-26T07:51:13.907Z,27.80
2022-07-26T07:53:40.746Z,27.50
2022-07-26T07:56:08.015Z,27.80
2022-07-26T07:58:34.787Z,27.90
2022-07-26T08:01:01.883Z,28.40
2022-07-26T08:03:39.050Z,28.70
2022-07-26T08:06:08.144Z,28.80
2022-07-26T08:08:36.059Z,28.80
2022-07-26T08:11:03.761Z,28.70
2022-07-26T08:13:35.674Z,28.90
2022-07-26T08:16:04.521Z,29.00
2022-07-26T08:18:33.056Z,29.10
2022-07-26T08:21:00.424Z,29.10
2022-07-26T08:23:27.104Z,29.20
2022-07-26T08:25:59.588Z,28.40
2022-07-26T08:31:17.152Z,27.80
2022-07-26T08:33:46.373Z,28.30
2022-07-26T08:36:14.792Z,28.90
2022-07-26T08:38:41.913Z,29.30
2022-07-26T08:41:09.013Z,29.60
2022-07-26T08:43:43.740Z,29.70
2022-07-26T08:46:25.227Z,29.40
2022-07-26T08:48:54.022Z,28.90
2022-07-26T08:51:23.376Z,29.00
2022-07-26T08:53:54.093Z,28.90
2022-07-26T08:56:20.833Z,29.20
2022-07-26T08:58:47.667Z,29.40
2022-07-26T09:01:15.153Z,29.10
2022-07-26T09:03:43.914Z,28.70
2022-07-26T09:06:31.008Z,29.00
2022-07-26T09:09:13.602Z,29.90
2022-07-26T09:11:40.327Z,30.40
2022-07-26T09:14:07.142Z,29.30
2022-07-26T09:16:39.343Z,28.40
2022-07-26T09:19:19.292Z,28.10
2022-07-26T09:21:46.850Z,28.40
2022-07-26T09:24:16.419Z,28.60
2022-07-26T09:26:56.708Z,28.90
2022-07-26T09:29:23.416Z,29.10
2022-07-26T09:31:50.148Z,29.10
2022-07-26T09:34:26.434Z,29.20
2022-07-26T09:36:54.717Z,29.10
2022-07-26T09:39:22.739Z,29.50
2022-07-26T09:42:26.773Z,29.40
2022-07-26T09:44:55.763Z,29.80
2022-07-26T09:47:23.568Z,30.00
2022-07-26T09:50:11.359Z,29.90
2022-07-26T09:52:39.781Z,29.50
2022-07-26T09:55:08.404Z,29.10
2022-07-26T09:57:35.629Z,29.70
2022-07-26T10:00:07.666Z,30.50
2022-07-26T10:02:34.748Z,30.20
2022-07-26T10:05:01.567Z,29.50
2022-07-26T10:07:28.441Z,28.80
2022-07-26T10:10:08.655Z,28.50
2022-07-26T10:12:36.058Z,28.10
2022-07-26T10:15:03.465Z,28.40
2022-07-26T10:17:42.682Z,29.20
2022-07-26T10:20:31.096Z,29.80
2022-07-26T10:22:58.997Z,30.30
2022-07-26T10:25:25.620Z,30.50
2022-07-26T10:27:54.628Z,31.20
2022-07-26T10:30:22.701Z,31.60
2022-07-26T10:33:01.443Z,32.00
2022-07-26T10:35:36.278Z,32.30
2022-07-26T10:38:06.190Z,32.70
2022-07-26T10:40:33.046Z,33.20
2022-07-26T10:46:16.280Z,31.80
2022-07-26T10:49:04.655Z,30.30
2022-07-26T10:51:39.617Z,30.10
2022-07-26T10:54:13.933Z,30.80
2022-07-26T10:56:41.039Z,30.80
2022-07-26T10:59:08.145Z,30.00
2022-07-26T11:01:43.142Z,30.20
2022-07-26T11:04:36.867Z,30.90
2022-07-26T11:07:03.671Z,31.50
2022-07-26T11:09:36.699Z,31.80
2022-07-26T11:12:17.122Z,32.00
2022-07-26T11:14:48.274Z,32.30
2022-07-26T11:17:25.243Z,32.60
2022-07-26T11:19:52.641Z,32.40
2022-07-26T11:22:21.420Z,31.50
2022-07-26T11:24:48.433Z,30.90
2022-07-26T11:27:15.257Z,30.70
2022-07-26T11:29:42.174Z,31.10
2022-07-26T11:32:19.011Z,31.40
2022-07-26T11:34:46.583Z,31.60
2022-07-26T11:37:14.085Z,31.90
2022-07-26T11:39:41.057Z,32.20
2022-07-26T11:42:10.170Z,32.50
2022-07-26T11:44:37.313Z,32.80
2022-07-26T11:47:29.318Z,33.20
2022-07-26T11:50:16.876Z,32.20
2022-07-26T11:52:42.942Z,31.30
2022-07-26T11:55:09.773Z,30.50
2022-07-26T11:57:36.767Z,29.70
2022-07-26T12:00:04.856Z,29.30
2022-07-26T12:02:31.903Z,29.40
2022-07-26T12:05:20.544Z,29.80
2022-07-26T12:08:05.050Z,30.30
2022-07-26T12:10:32.111Z,30.90
2022-07-26T12:13:09.054Z,30.80
2022-07-26T12:15:50.724Z,31.40
2022-07-26T12:18:28.710Z,32.00
2022-07-26T12:21:08.452Z,31.90
2022-07-26T12:23:41.651Z,31.30
2022-07-26T12:26:30.927Z,30.70
2022-07-26T12:29:02.078Z,30.50
2022-07-26T12:31:34.211Z,30.30
2022-07-26T12:34:04.284Z,29.90
2022-07-26T12:36:33.814Z,29.70
2022-07-26T12:39:01.283Z,29.30
2022-07-26T12:41:40.721Z,28.80
2022-07-26T12:44:12.504Z,28.50
2022-07-26T12:46:45.997Z,28.50
2022-07-26T12:49:13.077Z,28.20
2022-07-26T12:51:43.013Z,28.10
2022-07-26T12:54:11.870Z,28.20
2022-07-26T12:56:38.976Z,28.80
2022-07-26T12:59:06.216Z,29.50
2022-07-26T13:01:33.172Z,29.70
2022-07-26T13:04:00.516Z,29.60
2022-07-26T13:06:27.621Z,29.20
2022-07-26T13:08:54.433Z,28.90
2022-07-26T13:11:21.145Z,28.50
2022-07-26T13:13:50.746Z,28.20
2022-07-26T13:16:17.515Z,28.10
2022-07-26T13:18:44.265Z,27.80
2022-07-26T13:21:11.875Z,27.80
2022-07-26T13:23:40.986Z,27.80
2022-07-26T13:26:07.819Z,28.10
2022-07-26T13:28:36.342Z,28.40
2022-07-26T13:31:03.216Z,28.30
2022-07-26T13:33:30.154Z,28.50
2022-07-26T13:35:57.890Z,28.50
2022-07-26T13:38:31.661Z,28.30
2022-07-26T13:40:58.518Z,28.20
2022-07-26T13:43:27.783Z,28.20
2022-07-26T13:45:54.810Z,28.10
2022-07-26T13:48:21.648Z,27.90
2022-07-26T13:50:49.006Z,27.70
2022-07-26T13:53:16.498Z,28.00
2022-07-26T13:55:43.232Z,28.40
2022-07-26T13:58:10.554Z,28.90
2022-07-26T14:00:41.541Z,29.30
2022-07-26T14:03:10.933Z,30.30
2022-07-26T14:05:37.657Z,31.30
2022-07-26T14:08:07.258Z,32.50
2022-07-26T14:10:38.179Z,33.30
2022-07-26T14:13:05.577Z,33.60
2022-07-26T14:15:36.029Z,33.80
2022-07-26T14:18:03.666Z,33.90
2022-07-26T14:20:30.664Z,32.70
2022-07-26T14:22:57.909Z,32.50
2022-07-26T14:25:25.828Z,33.20
2022-07-26T14:27:53.851Z,33.80
2022-07-26T14:30:23.502Z,34.20
2022-07-26T14:32:50.683Z,33.80
2022-07-26T14:35:17.626Z,33.10
2022-07-26T14:37:45.866Z,31.80
2022-07-26T14:40:15.510Z,30.70
2022-07-26T14:42:42.884Z,30.60
2022-07-26T14:45:10.518Z,30.10
2022-07-26T14:47:37.622Z,29.80
2022-07-26T14:50:07.228Z,29.20
2022-07-26T14:52:37.324Z,28.80
2022-07-26T14:55:04.717Z,28.50
2022-07-26T14:57:33.839Z,28.90
2022-07-26T15:00:06.862Z,29.30
2022-07-26T15:02:33.866Z,30.20
2022-07-26T15:05:00.986Z,31.50
2022-07-26T15:07:28.103Z,32.40
2022-07-26T15:09:54.927Z,32.20
2022-07-26T15:12:21.706Z,31.50
2022-07-26T15:14:48.449Z,31.00
2022-07-26T15:17:15.224Z,31.70
2022-07-26T15:19:42.064Z,33.20
2022-07-26T15:22:09.849Z,34.60
2022-07-26T15:24:39.908Z,35.80
2022-07-26T15:27:07.520Z,35.70
2022-07-26T15:29:36.080Z,36.20
2022-07-26T15:32:03.967Z,36.90
2022-07-26T15:34:31.484Z,37.90
2022-07-26T15:36:58.397Z,38.10
2022-07-26T15:39:25.301Z,36.90
2022-07-26T15:41:52.107Z,36.20
2022-07-26T15:44:21.679Z,34.90
2022-07-26T15:46:50.645Z,32.60
2022-07-26T15:49:20.722Z,30.90
2022-07-26T15:51:47.886Z,30.00
2022-07-26T15:54:17.402Z,29.20
2022-07-26T15:56:44.397Z,28.60
2022-07-26T15:59:11.793Z,28.10
2022-07-26T16:01:38.793Z,27.60
2022-07-26T16:04:06.162Z,27.50
2022-07-26T16:06:34.480Z,27.70
2022-07-26T16:09:19.311Z,28.20
2022-07-26T16:11:47.437Z,28.60
2022-07-26T16:14:15.045Z,28.80
2022-07-26T16:16:42.057Z,28.70
2022-07-26T16:19:09.265Z,28.70
2022-07-26T16:21:37.396Z,28.80
2022-07-26T16:24:07.196Z,28.80
2022-07-26T16:26:34.653Z,28.80
2022-07-26T16:29:01.691Z,28.70
2022-07-26T16:31:28.731Z,28.80
2022-07-26T16:33:55.533Z,28.50
2022-07-26T16:36:22.533Z,28.40
2022-07-26T16:38:49.620Z,28.40
2022-07-26T16:41:16.769Z,28.30
2022-07-26T16:43:43.664Z,28.00
2022-07-26T16:46:10.776Z,27.80
2022-07-26T16:48:37.653Z,27.50
2022-07-26T16:51:04.941Z,27.30
2022-07-26T16:53:33.543Z,26.80
2022-07-26T16:56:00.606Z,26.70
2022-07-26T16:58:27.368Z,26.60
2022-07-26T17:00:54.153Z,26.40
2022-07-26T17:03:20.921Z,26.20
2022-07-26T17:05:47.688Z,26.20
2022-07-26T17:08:14.557Z,26.30
2022-07-26T17:10:41.554Z,26.20
2022-07-26T17:13:08.485Z,26.10
2022-07-26T17:15:35.264Z,26.00
2022-07-26T17:18:02.076Z,26.00
2022-07-26T17:20:28.991Z,25.90
2022-07-26T17:22:55.921Z,25.70
2022-07-26T17:25:22.758Z,25.70
2022-07-26T17:27:51.811Z,25.60
2022-07-26T17:30:20.077Z,25.40
2022-07-26T17:32:46.996Z,25.20
2022-07-26T17:35:13.916Z,25.10
2022-07-26T17:37:41.059Z,24.90
2022-07-26T17:40:08.746Z,24.80
2022-07-26T17:42:36.949Z,24.80
2022-07-26T17:45:05.991Z,24.80
2022-07-26T17:47:32.858Z,24.70
2022-07-26T17:52:49.417Z,24.60
2022-07-26T17:55:16.213Z,24.50
2022-07-26T17:57:42.983Z,24.50
2022-07-26T18:00:10.332Z,24.40
2022-07-26T18:02:39.997Z,24.40
2022-07-26T18:05:07.161Z,24.30
2022-07-26T18:07:33.912Z,24.30
2022-07-26T18:10:00.865Z,24.20
2022-07-26T18:12:28.089Z,24.10
2022-07-26T18:14:54.897Z,23.90
2022-07-26T18:17:21.651Z,23.70
2022-07-26T18:19:48.464Z,23.60
2022-07-26T18:22:15.215Z,23.60
2022-07-26T18:24:42.028Z,23.50
2022-07-26T18:27:11.539Z,23.30
2022-07-26T18:29:38.352Z,23.20
2022-07-26T18:32:05.362Z,23.10
2022-07-26T18:34:32.052Z,23.00
2022-07-26T18:36:58.784Z,22.90
2022-07-26T18:39:25.494Z,22.90
2022-07-26T18:41:59.509Z,22.80
2022-07-26T18:44:26.317Z,22.70
2022-07-26T18:46:53.364Z,22.60
2022-07-26T18:49:20.763Z,22.60
2022-07-26T18:51:49.011Z,22.50
2022-07-26T18:54:16.947Z,22.50
2022-07-26T18:56:43.865Z,22.40
2022-07-26T18:59:11.027Z,22.40
2022-07-26T19:01:38.091Z,22.40
2022-07-26T19:04:07.336Z,22.40
2022-07-26T19:06:35.761Z,22.30
2022-07-26T19:09:02.713Z,22.20
2022-07-26T19:11:30.224Z,22.20
2022-07-26T19:13:57.609Z,22.10
2022-07-26T19:16:26.607Z,22.00
2022-07-26T19:18:57.377Z,21.90
2022-07-26T19:21:24.556Z,21.80
2022-07-26T19:23:51.305Z,21.80
2022-07-26T19:26:18.466Z,21.70
2022-07-26T19:28:45.469Z,21.70
2022-07-26T19:31:12.250Z,21.70
2022-07-26T19:33:39.047Z,21.70
2022-07-26T19:36:06.302Z,21.70
2022-07-26T19:38:33.213Z,21.70
2022-07-26T19:41:01.217Z,21.70
2022-07-26T19:43:28.753Z,21.70
2022-07-26T19:45:55.611Z,21.70
2022-07-26T19:48:22.560Z,21.70
2022-07-26T19:50:51.107Z,21.70
2022-07-26T19:53:18.063Z,21.70
2022-07-26T19:55:44.810Z,21.70
2022-07-26T19:58:12.696Z,21.80
2022-07-26T20:00:39.787Z,21.80
2022-07-26T20:03:06.835Z,21.80
2022-07-26T20:05:35.011Z,21.80
2022-07-26T20:08:05.173Z,21.80
2022-07-26T20:10:32.490Z,21.70
2022-07-26T20:12:59.708Z,21.70
2022-07-26T20:15:26.574Z,21.70
2022-07-26T20:17:53.673Z,21.70
2022-07-26T20:20:20.690Z,21.60
2022-07-26T20:22:47.507Z,21.60
2022-07-26T20:25:21.226Z,21.60
2022-07-26T20:27:51.219Z,21.50
2022-07-26T20:30:18.335Z,21.50
2022-07-26T20:32:45.123Z,21.50
2022-07-26T20:35:11.945Z,21.50
2022-07-26T20:37:40.751Z,21.40
2022-07-26T20:40:09.080Z,21.40
2022-07-26T20:42:36.574Z,21.30
2022-07-26T20:45:11.411Z,21.20
2022-07-26T20:47:43.100Z,21.30
2022-07-26T20:50:11.814Z,21.20
2022-07-26T20:52:38.985Z,21.20
2022-07-26T20:55:07.403Z,21.10
2022-07-26T20:57:34.501Z,21.00
2022-07-26T21:00:01.315Z,21.00
2022-07-26T21:02:28.145Z,20.90
2022-07-26T21:05:02.451Z,20.90
2022-07-26T21:07:57.351Z,20.80
2022-07-26T21:10:16.153Z,20.80
2022-07-26T21:12:42.978Z,20.80
2022-07-26T21:15:10.279Z,20.70
2022-07-26T21:17:37.397Z,20.70
2022-07-26T21:20:05.697Z,20.60
2022-07-26T21:22:32.500Z,20.60
2022-07-26T21:24:59.324Z,20.60
2022-07-26T21:27:26.978Z,20.60
2022-07-26T21:29:53.737Z,20.50
2022-07-26T21:32:20.453Z,20.50
2022-07-26T21:34:47.236Z,20.50
2022-07-26T21:37:17.484Z,20.50
2022-07-26T21:39:44.398Z,20.50
2022-07-26T21:42:13.515Z,20.50
2022-07-26T21:44:40.462Z,20.50
2022-07-26T21:47:07.200Z,20.50
2022-07-26T21:49:34.336Z,20.50
2022-07-26T21:52:01.207Z,20.50
2022-07-26T21:54:27.986Z,20.40
2022-07-26T21:56:55.729Z,20.50
2022-07-26T21:59:22.476Z,20.40
2022-07-26T22:01:49.387Z,20.40
2022-07-26T22:04:17.779Z,20.40
2022-07-26T22:06:45.584Z,20.40
2022-07-26T22:09:12.656Z,20.40
2022-07-26T22:11:39.717Z,20.40
2022-07-26T22:14:08.373Z,20.30
2022-07-26T22:16:35.413Z,20.30
2022-07-26T22:19:02.397Z,20.20
2022-07-26T22:21:32.323Z,20.20
2022-07-26T22:23:59.106Z,20.10
2022-07-26T22:26:31.163Z,20.10
2022-07-26T22:28:59.479Z,20.10
2022-07-26T22:31:26.647Z,20.00
2022-07-26T22:33:56.490Z,19.90
2022-07-26T22:36:23.214Z,19.80
2022-07-26T22:38:50.118Z,19.80
2022-07-26T22:41:16.961Z,19.70
2022-07-26T22:43:43.897Z,19.70
2022-07-26T22:46:10.665Z,19.60
2022-07-26T22:48:38.976Z,19.50
2022-07-26T22:51:06.849Z,19.50
2022-07-26T22:53:33.632Z,19.40
2022-07-26T22:56:00.326Z,19.40
2022-07-26T22:58:27.063Z,19.40
2022-07-26T23:00:57.192Z,19.40
2022-07-26T23:03:24.084Z,19.40
2022-07-26T23:05:53.998Z,19.30
2022-07-26T23:08:45.832Z,19.20
2022-07-26T23:11:10.626Z,19.20
2022-07-26T23:13:37.410Z,19.20
2022-07-26T23:16:04.506Z,19.10
2022-07-26T23:18:31.868Z,19.10
2022-07-26T23:20:59.188Z,19.00
2022-07-26T23:23:29.507Z,19.00
2022-07-26T23:25:57.133Z,18.90
2022-07-26T23:28:35.134Z,18.90
2022-07-26T23:31:10.191Z,18.90
2022-07-26T23:33:52.257Z,18.80
2022-07-26T23:36:20.737Z,18.70
2022-07-26T23:38:47.485Z,18.70
2022-07-26T23:41:14.231Z,18.70
2022-07-26T23:43:41.267Z,18.50
2022-07-26T23:46:10.701Z,18.40
2022-07-26T23:48:40.501Z,18.30
2022-07-26T23:51:07.490Z,18.10
2022-07-26T23:53:34.293Z,18.00
2022-07-26T23:56:01.099Z,17.90
2022-07-26T23:58:28.390Z,17.90
